Time;durP1;ratioP1;P1;durP2;ratioP2;P2;SDS_P1;SDS_P2;PMS_P1;PMS_P2;Temp;Humidity;BMP_temperature;BMP_pressure;BME280_temperature;BME280_humidity;BME280_pressure;Samples;Min_cycle;Max_cycle;Signal;HPM_P1;HPM_P2
2021/11/27 00:00:20;;;;;;;20.47;11.87;;;;;;;-0.93;100.00;95573.47;5058914;28;20336;-74
2021/11/27 00:02:48;;;;;;;13.40;11.23;;;;;;;-0.93;100.00;95575.22;5045892;28;20199;-74
2021/11/27 00:05:17;;;;;;;15.93;12.17;;;;;;;-0.93;100.00;95565.66;5059279;28;20210;-73
2021/11/27 00:07:46;;;;;;;14.27;11.47;;;;;;;-0.98;100.00;95557.47;5014577;28;20570;-72
2021/11/27 00:10:16;;;;;;;15.93;11.33;;;;;;;-1.03;100.00;95555.34;5041850;28;20214;-74
2021/11/27 00:12:46;;;;;;;18.70;12.33;;;;;;;-0.95;100.00;95558.97;5026398;28;20498;-72
2021/11/27 00:15:15;;;;;;;15.30;11.67;;;;;;;-0.99;100.00;95552.44;5054842;28;20226;-73
2021/11/27 00:17:43;;;;;;;16.20;11.10;;;;;;;-1.05;100.00;95559.88;5047796;28;20397;-75
2021/11/27 00:20:14;;;;;;;15.40;11.93;;;;;;;-1.07;100.00;95555.78;5057339;28;21677;-73
2021/11/27 00:22:43;;;;;;;15.40;11.43;;;;;;;-1.07;100.00;95553.19;5018437;28;20445;-75
2021/11/27 00:25:14;;;;;;;13.20;10.50;;;;;;;-1.03;100.00;95554.50;5039968;28;20574;-73
2021/11/27 00:27:42;;;;;;;13.67;11.40;;;;;;;-0.92;100.00;95553.47;5034400;28;20234;-76
2021/11/27 00:30:14;;;;;;;15.53;11.73;;;;;;;-0.92;100.00;95550.84;5040807;28;20489;-75
2021/11/27 00:32:42;;;;;;;15.87;11.90;;;;;;;-0.94;100.00;95552.78;5048675;28;20223;-76
2021/11/27 00:35:10;;;;;;;15.53;11.60;;;;;;;-0.93;100.00;95549.22;5053277;28;20211;-75
2021/11/27 00:37:39;;;;;;;14.23;11.03;;;;;;;-0.90;100.00;95551.53;5023811;28;20356;-75
2021/11/27 00:40:10;;;;;;;15.30;10.73;;;;;;;-0.89;100.00;95545.34;5039966;28;20195;-76
2021/11/27 00:42:43;;;;;;;16.60;11.33;;;;;;;-0.83;100.00;95541.34;5037378;28;20206;-75
2021/11/27 00:45:14;;;;;;;13.73;10.63;;;;;;;-0.86;100.00;95539.03;5039697;28;20694;-74
2021/11/27 00:47:44;;;;;;;13.30;10.70;;;;;;;-0.84;100.00;95529.31;5052544;28;20229;-74
2021/11/27 00:50:14;;;;;;;14.80;10.83;;;;;;;-0.86;100.00;95531.25;5049699;28;20202;-73
2021/11/27 00:52:42;;;;;;;13.77;10.40;;;;;;;-0.77;100.00;95530.31;5020733;28;20230;-75
2021/11/27 00:55:11;;;;;;;14.50;12.20;;;;;;;-0.67;100.00;95527.59;5048234;28;20207;-74
2021/11/27 00:57:40;;;;;;;12.03;9.57;;;;;;;-0.69;100.00;95519.16;5026608;28;20238;-75
2021/11/27 01:00:12;;;;;;;13.73;10.83;;;;;;;-0.64;100.00;95512.50;5036671;28;20929;-71
2021/11/27 01:02:40;;;;;;;14.47;10.90;;;;;;;-0.60;100.00;95516.41;5052032;28;20230;-74
2021/11/27 01:05:10;;;;;;;12.70;9.97;;;;;;;-0.44;100.00;95502.66;5052095;28;20198;-71
2021/11/27 01:07:38;;;;;;;12.73;10.00;;;;;;;-0.51;100.00;95514.66;5020839;28;20551;-74
2021/11/27 01:10:09;;;;;;;12.40;10.17;;;;;;;-0.56;100.00;95503.91;5047493;28;20472;-72
2021/11/27 01:12:37;;;;;;;11.27;9.47;;;;;;;-0.46;100.00;95498.59;5036052;28;20240;-74
2021/11/27 01:15:07;;;;;;;12.03;9.20;;;;;;;-0.47;100.00;95502.97;5051353;28;20203;-76
2021/11/27 01:17:37;;;;;;;11.73;10.50;;;;;;;-0.53;100.00;95488.00;5050987;28;21040;-72
2021/11/27 01:20:06;;;;;;;14.03;9.87;;;;;;;-0.46;100.00;95486.38;5054496;28;20282;-76
2021/11/27 01:22:35;;;;;;;12.37;10.07;;;;;;;-0.37;100.00;95479.44;5022744;28;20765;-73
2021/11/27 01:25:03;;;;;;;10.70;9.60;;;;;;;-0.47;100.00;95478.75;5052501;28;20207;-73
2021/11/27 01:27:32;;;;;;;10.50;8.90;;;;;;;-0.49;100.00;95480.69;5045607;28;20223;-73
2021/11/27 01:30:00;;;;;;;12.33;9.77;;;;;;;-0.45;100.00;95476.81;5041153;28;20618;-73
2021/11/27 01:32:28;;;;;;;14.27;9.83;;;;;;;-0.42;100.00;95478.25;5040740;28;20317;-73
2021/11/27 01:34:57;;;;;;;10.17;8.90;;;;;;;-0.25;100.00;95484.34;5047999;28;20369;-73
2021/11/27 01:37:25;;;;;;;11.73;9.70;;;;;;;-0.34;100.00;95473.13;5047472;28;20231;-72
2021/11/27 01:39:53;;;;;;;11.70;9.50;;;;;;;-0.25;100.00;95464.34;5024853;28;20220;-73
2021/11/27 01:42:22;;;;;;;12.63;9.50;;;;;;;-0.33;100.00;95465.13;5036225;28;20207;-72
2021/11/27 01:44:50;;;;;;;13.33;9.23;;;;;;;-0.25;100.00;95469.56;5028389;28;20216;-74
2021/11/27 01:47:21;;;;;;;10.50;9.20;;;;;;;-0.31;100.00;95464.97;5047227;28;20254;-74
2021/11/27 01:49:50;;;;;;;11.67;8.87;;;;;;;-0.22;100.00;95455.38;5053887;28;20204;-76
2021/11/27 01:52:19;;;;;;;9.10;8.00;;;;;;;-0.24;100.00;95454.75;5056601;28;20215;-73
2021/11/27 01:54:47;;;;;;;9.93;8.93;;;;;;;-0.04;100.00;95447.44;5027826;28;20214;-75
2021/11/27 01:57:15;;;;;;;10.70;8.63;;;;;;;-0.11;100.00;95442.09;5041409;28;20433;-73
2021/11/27 01:59:44;;;;;;;11.80;9.13;;;;;;;-0.01;100.00;95447.97;5051855;28;20695;-74
2021/11/27 02:02:14;;;;;;;9.40;8.03;;;;;;;0.06;100.00;95444.72;5029185;28;20441;-72
2021/11/27 02:04:43;;;;;;;10.23;8.70;;;;;;;0.04;100.00;95444.88;5051583;28;20230;-75
2021/11/27 02:07:11;;;;;;;9.33;7.60;;;;;;;0.18;100.00;95451.22;5051125;28;20314;-73
2021/11/27 02:09:40;;;;;;;8.83;7.93;;;;;;;0.25;100.00;95441.81;5026831;28;20214;-76
2021/11/27 02:12:11;;;;;;;10.90;8.90;;;;;;;0.18;100.00;95440.81;5054738;28;20217;-72
2021/11/27 02:14:40;;;;;;;9.67;8.67;;;;;;;0.21;100.00;95437.91;5040307;28;20340;-75
2021/11/27 02:17:13;;;;;;;9.57;8.43;;;;;;;0.25;100.00;95439.19;5031748;28;20572;-73
2021/11/27 02:19:42;;;;;;;8.60;7.80;;;;;;;0.19;100.00;95434.66;5052813;28;20230;-75
2021/11/27 02:22:12;;;;;;;8.73;7.47;;;;;;;0.28;100.00;95428.44;5052494;28;20437;-74
2021/11/27 02:24:40;;;;;;;8.43;7.60;;;;;;;0.27;100.00;95418.19;5054842;28;20311;-74
2021/11/27 02:27:09;;;;;;;8.33;7.57;;;;;;;0.27;100.00;95418.19;5028416;28;20459;-74
2021/11/27 02:29:37;;;;;;;10.07;7.87;;;;;;;0.20;100.00;95423.25;5041194;28;20214;-74
2021/11/27 02:32:06;;;;;;;9.17;8.27;;;;;;;0.11;100.00;95413.78;5038223;28;20206;-73
2021/11/27 02:34:34;;;;;;;8.87;7.97;;;;;;;0.16;100.00;95401.09;5036450;28;20896;-72
2021/11/27 02:37:06;;;;;;;8.50;7.60;;;;;;;0.11;100.00;95401.59;5051274;28;20329;-72
2021/11/27 02:39:37;;;;;;;9.47;7.67;;;;;;;0.19;100.00;95390.38;5050064;28;20220;-74
2021/11/27 02:42:07;;;;;;;9.07;8.07;;;;;;;0.10;100.00;95393.91;5025359;28;20664;-73
2021/11/27 02:44:38;;;;;;;9.07;7.57;;;;;;;0.06;100.00;95397.84;5040825;28;20619;-72
2021/11/27 02:47:07;;;;;;;7.80;7.00;;;;;;;0.06;100.00;95393.44;5038747;28;22769;-74
2021/11/27 02:49:36;;;;;;;8.40;7.57;;;;;;;0.14;100.00;95405.66;5040798;28;20313;-72
2021/11/27 02:52:05;;;;;;;7.70;6.97;;;;;;;0.20;100.00;95394.59;5044392;28;20226;-74
2021/11/27 02:54:35;;;;;;;9.00;7.90;;;;;;;0.19;100.00;95406.00;5050314;28;20230;-73
2021/11/27 02:57:04;;;;;;;9.97;7.67;;;;;;;0.25;100.00;95400.13;5019117;28;20231;-72
2021/11/27 02:59:32;;;;;;;8.00;7.30;;;;;;;0.18;100.00;95399.13;5042381;28;20352;-73
2021/11/27 03:02:03;;;;;;;8.10;7.17;;;;;;;0.31;100.00;95387.41;5036751;28;20283;-72
2021/11/27 03:04:33;;;;;;;8.33;7.00;;;;;;;0.31;100.00;95395.25;5040604;28;20577;-73
2021/11/27 03:07:01;;;;;;;8.93;7.57;;;;;;;0.32;100.00;95402.06;5051518;28;20722;-72
2021/11/27 03:09:29;;;;;;;7.23;6.60;;;;;;;0.27;100.00;95395.56;5063643;28;20660;-73
2021/11/27 03:11:59;;;;;;;9.13;7.17;;;;;;;0.30;100.00;95391.00;5022203;28;20223;-74
2021/11/27 03:14:28;;;;;;;9.03;8.10;;;;;;;0.32;100.00;95387.25;5059083;28;20222;-74
2021/11/27 03:16:57;;;;;;;7.20;6.50;;;;;;;0.23;100.00;95385.63;5043563;28;20232;-74
2021/11/27 03:19:29;;;;;;;11.30;8.17;;;;;;;0.25;100.00;95387.09;5033827;28;20203;-71
2021/11/27 03:21:57;;;;;;;9.23;7.87;;;;;;;0.23;100.00;95389.06;5044373;28;20207;-75
2021/11/27 03:24:26;;;;;;;8.07;7.27;;;;;;;0.28;100.00;95397.19;5056434;28;20257;-71
2021/11/27 03:26:54;;;;;;;10.47;8.17;;;;;;;0.23;100.00;95396.88;5026501;28;20674;-76
2021/11/27 03:29:24;;;;;;;10.77;8.77;;;;;;;0.32;100.00;95396.88;5058201;28;20199;-71
2021/11/27 03:31:57;;;;;;;10.47;7.93;;;;;;;0.30;100.00;95391.81;5043383;28;20294;-75
2021/11/27 03:34:25;;;;;;;8.20;7.37;;;;;;;0.20;100.00;95401.59;5053263;28;20227;-73
2021/11/27 03:36:53;;;;;;;9.50;7.33;;;;;;;0.18;100.00;95391.31;5044988;28;20318;-75
2021/11/27 03:39:21;;;;;;;8.43;7.33;;;;;;;0.18;100.00;95393.13;5060581;28;20196;-72
2021/11/27 03:41:50;;;;;;;8.27;7.30;;;;;;;0.14;100.00;95383.03;5039988;28;20953;-76
2021/11/27 03:44:18;;;;;;;8.37;7.20;;;;;;;0.15;100.00;95396.84;5051940;28;20209;-71
2021/11/27 03:46:48;;;;;;;7.57;6.77;;;;;;;0.18;100.00;95396.53;5040079;28;20365;-74
2021/11/27 03:49:18;;;;;;;9.07;7.33;;;;;;;0.18;100.00;95404.34;5041761;28;20218;-71
2021/11/27 03:51:46;;;;;;;10.27;7.20;;;;;;;0.16;100.00;95401.09;5043925;28;20501;-75
2021/11/27 03:54:14;;;;;;;8.97;7.57;;;;;;;0.23;100.00;95404.69;5050710;28;20231;-71
2021/11/27 03:56:42;;;;;;;8.33;7.17;;;;;;;0.18;100.00;95395.72;5057770;28;20769;-74
2021/11/27 03:59:10;;;;;;;9.07;7.87;;;;;;;0.20;100.00;95396.38;5018038;28;20454;-72
2021/11/27 04:01:38;;;;;;;7.80;7.03;;;;;;;0.10;100.00;95396.53;5047027;28;20233;-72
2021/11/27 04:04:09;;;;;;;9.17;7.83;;;;;;;0.12;100.00;95399.78;5046585;28;20368;-71
2021/11/27 04:06:38;;;;;;;7.97;6.97;;;;;;;0.17;100.00;95400.09;5038687;28;20321;-72
2021/11/27 04:09:08;;;;;;;7.53;6.73;;;;;;;0.10;100.00;95401.72;5044310;28;20206;-73
2021/11/27 04:11:37;;;;;;;8.20;7.20;;;;;;;0.20;100.00;95396.38;5055494;28;20218;-72
2021/11/27 04:14:06;;;;;;;8.30;7.60;;;;;;;0.18;100.00;95403.53;5018991;28;20752;-73
2021/11/27 04:16:34;;;;;;;9.70;7.93;;;;;;;0.14;100.00;95393.44;5047195;28;20333;-75
2021/11/27 04:19:02;;;;;;;8.07;6.73;;;;;;;0.16;100.00;95401.09;5040858;28;20941;-73
2021/11/27 04:21:32;;;;;;;7.30;6.60;;;;;;;0.26;100.00;95408.75;5045566;28;20211;-73
2021/11/27 04:24:00;;;;;;;10.43;7.90;;;;;;;0.23;100.00;95406.47;5042289;28;20496;-73
2021/11/27 04:26:28;;;;;;;8.60;7.70;;;;;;;0.27;100.00;95399.94;5049803;28;20204;-72
2021/11/27 04:28:57;;;;;;;6.97;6.17;;;;;;;0.19;100.00;95397.34;5052380;28;20210;-76
2021/11/27 04:31:25;;;;;;;9.87;7.83;;;;;;;0.24;100.00;95387.25;5024141;28;20330;-74
2021/11/27 04:33:54;;;;;;;8.90;7.50;;;;;;;0.18;100.00;95396.53;5046407;28;20223;-76
2021/11/27 04:36:22;;;;;;;8.37;7.37;;;;;;;0.12;100.00;95392.78;5043582;28;20204;-75
2021/11/27 04:38:52;;;;;;;8.43;7.53;;;;;;;0.22;100.00;95387.44;5038736;28;20310;-75
2021/11/27 04:41:20;;;;;;;8.43;7.30;;;;;;;0.19;100.00;95379.94;5056459;28;20199;-75
2021/11/27 04:43:48;;;;;;;8.07;7.27;;;;;;;0.30;100.00;95380.59;5034311;28;20857;-73
2021/11/27 04:46:17;;;;;;;7.60;6.77;;;;;;;0.33;100.00;95378.44;5016646;28;20233;-74
2021/11/27 04:48:45;;;;;;;9.23;7.23;;;;;;;0.24;100.00;95376.84;5042550;28;20415;-75
2021/11/27 04:51:13;;;;;;;9.10;7.33;;;;;;;0.17;100.00;95376.66;5053035;28;20218;-75
2021/11/27 04:53:41;;;;;;;8.23;7.23;;;;;;;0.28;100.00;95380.72;5048198;28;20416;-69
2021/11/27 04:56:11;;;;;;;7.20;6.43;;;;;;;0.25;100.00;95388.88;5050465;28;20678;-69
2021/11/27 04:58:39;;;;;;;8.93;7.53;;;;;;;0.26;100.00;95391.34;5047319;28;20221;-70
2021/11/27 05:01:07;;;;;;;7.10;6.40;;;;;;;0.20;100.00;95384.19;5038033;28;20310;-74
2021/11/27 05:03:37;;;;;;;9.23;7.43;;;;;;;0.24;100.00;95387.25;5028912;28;20971;-73
2021/11/27 05:06:05;;;;;;;6.43;5.83;;;;;;;0.22;100.00;95389.22;5042384;28;20218;-73
2021/11/27 05:08:33;;;;;;;6.97;6.37;;;;;;;0.22;100.00;95394.41;5029033;28;20259;-73
2021/11/27 05:11:01;;;;;;;7.13;6.43;;;;;;;0.30;100.00;95385.78;5050424;28;20676;-74
2021/11/27 05:13:31;;;;;;;7.63;6.50;;;;;;;0.18;100.00;95386.09;5036850;28;20293;-74
2021/11/27 05:15:59;;;;;;;6.53;5.93;;;;;;;0.28;100.00;95386.78;5035188;28;20224;-74
2021/11/27 05:18:27;;;;;;;6.83;6.20;;;;;;;0.32;100.00;95391.66;5024006;28;20234;-73
2021/11/27 05:20:58;;;;;;;7.20;6.10;;;;;;;0.27;100.00;95392.13;5035837;28;20216;-74
2021/11/27 05:23:27;;;;;;;6.40;5.80;;;;;;;0.24;100.00;95387.25;5041494;28;20339;-73
2021/11/27 05:25:57;;;;;;;8.13;6.53;;;;;;;0.27;100.00;95397.34;5053820;28;20214;-74
2021/11/27 05:28:25;;;;;;;6.33;5.80;;;;;;;0.28;100.00;95396.38;5043063;28;20385;-73
2021/11/27 05:30:54;;;;;;;7.90;7.13;;;;;;;0.39;100.00;95384.81;5051183;28;20203;-74
2021/11/27 05:33:35;;;;;;;6.43;5.93;;;;;;;0.35;100.00;95381.69;5021060;28;20268;-73
2021/11/27 05:36:04;;;;;;;6.27;5.67;;;;;;;0.37;100.00;95387.56;5042516;28;20262;-75
2021/11/27 05:38:32;;;;;;;6.30;5.70;;;;;;;0.37;100.00;95384.94;5040844;28;20284;-74
2021/11/27 05:41:00;;;;;;;7.13;5.73;;;;;;;0.25;100.00;95384.50;5052195;28;20199;-76
2021/11/27 05:43:30;;;;;;;6.67;5.53;;;;;;;0.34;100.00;95382.69;5049716;28;20238;-75
2021/11/27 05:45:59;;;;;;;7.20;6.33;;;;;;;0.28;100.00;95384.16;5050513;28;20207;-76
2021/11/27 05:48:27;;;;;;;6.77;6.07;;;;;;;0.29;100.00;95379.75;5026841;28;20222;-76
2021/11/27 05:50:55;;;;;;;6.80;6.13;;;;;;;0.24;100.00;95392.47;5052283;28;20206;-76
2021/11/27 05:53:24;;;;;;;5.50;4.90;;;;;;;0.30;100.00;95391.81;5043611;28;20683;-75
2021/11/27 05:55:52;;;;;;;6.63;5.83;;;;;;;0.21;100.00;95388.41;5055889;28;20223;-75
2021/11/27 05:58:21;;;;;;;7.10;6.20;;;;;;;0.36;100.00;95393.75;5036836;28;20555;-71
2021/11/27 06:00:50;;;;;;;5.60;5.17;;;;;;;0.28;100.00;95405.00;5052062;28;20207;-75
2021/11/27 06:03:20;;;;;;;6.20;5.07;;;;;;;0.22;100.00;95391.81;5012711;28;20473;-75
2021/11/27 06:05:48;;;;;;;6.37;5.77;;;;;;;0.22;100.00;95395.25;5037757;28;20231;-75
2021/11/27 06:08:16;;;;;;;5.63;5.13;;;;;;;0.28;100.00;95396.38;5042631;28;20745;-77
2021/11/27 06:10:44;;;;;;;5.03;4.53;;;;;;;0.21;100.00;95396.22;5043183;28;20303;-75
2021/11/27 06:13:12;;;;;;;5.83;5.33;;;;;;;0.20;100.00;95391.16;5043772;28;20451;-77
2021/11/27 06:15:40;;;;;;;6.77;4.90;;;;;;;0.32;100.00;95400.25;5054155;28;20743;-75
2021/11/27 06:18:09;;;;;;;5.13;4.63;;;;;;;0.20;100.00;95404.19;5039687;28;20235;-75
2021/11/27 06:20:38;;;;;;;5.20;4.70;;;;;;;0.19;100.00;95403.38;5027608;28;20444;-74
2021/11/27 06:23:08;;;;;;;5.83;5.23;;;;;;;0.09;100.00;95410.53;5040853;28;20418;-75
2021/11/27 06:25:37;;;;;;;5.63;5.03;;;;;;;0.09;100.00;95418.34;5040105;28;20240;-73
2021/11/27 06:28:05;;;;;;;6.57;5.97;;;;;;;-0.09;100.00;95428.91;5048777;28;20238;-79
2021/11/27 06:30:33;;;;;;;5.30;4.90;;;;;;;-0.14;100.00;95424.19;5042178;28;20456;-75
2021/11/27 06:33:01;;;;;;;6.43;5.20;;;;;;;-0.03;100.00;95429.06;5044526;28;20207;-76
2021/11/27 06:35:29;;;;;;;5.67;5.17;;;;;;;-0.02;100.00;95430.72;5013414;28;20233;-75
2021/11/27 06:37:59;;;;;;;11.83;5.73;;;;;;;-0.03;100.00;95425.66;5039258;28;20601;-72
2021/11/27 06:40:27;;;;;;;5.83;5.23;;;;;;;-0.17;100.00;95424.50;5037291;28;20207;-74
2021/11/27 06:42:56;;;;;;;6.93;5.60;;;;;;;-0.07;100.00;95435.59;5053283;28;20214;-74
2021/11/27 06:45:24;;;;;;;6.00;5.40;;;;;;;-0.12;100.00;95434.44;5035341;28;20215;-73
2021/11/27 06:47:52;;;;;;;5.97;5.37;;;;;;;-0.18;100.00;95428.09;5052738;28;20804;-76
2021/11/27 06:50:20;;;;;;;7.10;5.93;;;;;;;-0.27;100.00;95427.25;5043445;28;20935;-76
2021/11/27 06:52:48;;;;;;;6.53;5.90;;;;;;;-0.31;100.00;95436.34;5016795;28;20215;-73
2021/11/27 06:55:18;;;;;;;6.67;5.97;;;;;;;-0.26;100.00;95435.84;5043348;28;20734;-72
2021/11/27 06:57:46;;;;;;;6.33;5.73;;;;;;;-0.27;100.00;95445.47;5033050;28;20227;-74
2021/11/27 07:00:15;;;;;;;5.90;5.37;;;;;;;-0.26;100.00;95443.66;5032646;28;20547;-73
2021/11/27 07:02:43;;;;;;;7.23;5.47;;;;;;;-0.31;100.00;95444.97;5059862;28;20218;-74
2021/11/27 07:05:11;;;;;;;6.50;5.73;;;;;;;-0.35;100.00;95450.66;5043560;28;20213;-72
2021/11/27 07:07:39;;;;;;;6.23;5.63;;;;;;;-0.25;100.00;95460.91;5026746;28;20403;-74
2021/11/27 07:10:08;;;;;;;6.50;6.00;;;;;;;-0.25;100.00;95458.31;5038817;28;20211;-72
2021/11/27 07:12:39;;;;;;;6.77;5.87;;;;;;;-0.23;100.00;95457.19;5042845;28;20207;-74
2021/11/27 07:15:08;;;;;;;6.53;5.63;;;;;;;-0.17;100.00;95458.34;5045566;28;20737;-70
2021/11/27 07:17:36;;;;;;;6.53;5.93;;;;;;;-0.24;100.00;95452.97;5048237;28;20244;-72
2021/11/27 07:20:06;;;;;;;6.83;6.13;;;;;;;-0.18;100.00;95457.53;5040655;28;20531;-70
2021/11/27 07:22:34;;;;;;;6.40;5.83;;;;;;;-0.05;100.00;95464.06;5025249;28;20784;-72
2021/11/27 07:25:07;;;;;;;6.23;5.63;;;;;;;-0.19;100.00;95470.69;5043131;28;20671;-71
2021/11/27 07:27:35;;;;;;;5.70;5.20;;;;;;;-0.10;100.00;95480.16;5045526;28;20230;-72
2021/11/27 07:30:06;;;;;;;5.63;5.10;;;;;;;-0.03;100.00;95475.94;5037880;28;20230;-71
2021/11/27 07:32:34;;;;;;;6.57;5.73;;;;;;;-0.12;100.00;95471.72;5041157;28;20207;-72
2021/11/27 07:35:02;;;;;;;7.03;6.27;;;;;;;-0.18;100.00;95478.34;5057148;28;20668;-71
2021/11/27 07:37:31;;;;;;;7.00;5.87;;;;;;;0.04;100.00;95481.34;5014161;28;20586;-73
2021/11/27 07:39:59;;;;;;;7.40;6.53;;;;;;;-0.11;100.00;95486.34;5045673;28;20207;-73
2021/11/27 07:42:27;;;;;;;6.43;5.70;;;;;;;0.08;100.00;95481.81;5048552;28;20203;-73
2021/11/27 07:44:55;;;;;;;5.50;5.00;;;;;;;0.04;100.00;95473.53;5037233;28;20211;-72
2021/11/27 07:47:24;;;;;;;6.40;5.80;;;;;;;0.04;100.00;95473.53;5044013;28;20408;-73
2021/11/27 07:49:58;;;;;;;5.83;5.33;;;;;;;0.03;100.00;95479.72;5050252;28;20206;-72
2021/11/27 07:52:26;;;;;;;5.87;5.23;;;;;;;0.04;100.00;95485.72;5048524;28;20418;-73
2021/11/27 07:54:54;;;;;;;5.63;5.07;;;;;;;0.16;100.00;95484.44;5011697;28;20222;-74
2021/11/27 07:57:23;;;;;;;5.73;5.23;;;;;;;0.33;100.00;95492.28;5050522;28;20312;-74
2021/11/27 07:59:51;;;;;;;5.40;4.90;;;;;;;0.34;100.00;95492.09;5047798;28;20200;-75
2021/11/27 08:02:19;;;;;;;5.80;5.37;;;;;;;0.26;100.00;95485.13;5031863;28;20220;-74
2021/11/27 08:04:48;;;;;;;6.40;5.87;;;;;;;0.26;100.00;95484.28;5047876;28;20218;-75
2021/11/27 08:07:16;;;;;;;6.30;5.70;;;;;;;0.31;100.00;95489.81;5035053;28;20222;-74
2021/11/27 08:09:44;;;;;;;7.07;6.10;;;;;;;0.36;100.00;95489.34;5014162;28;20222;-69
2021/11/27 08:12:12;;;;;;;6.57;5.90;;;;;;;0.59;100.00;95479.09;5048998;28;20662;-68
2021/11/27 08:14:41;;;;;;;5.77;5.00;;;;;;;0.64;100.00;95491.66;5056251;28;20214;-70
2021/11/27 08:17:09;;;;;;;5.93;5.27;;;;;;;0.64;100.00;95489.84;5033052;28;20227;-74
2021/11/27 08:19:37;;;;;;;6.97;5.60;;;;;;;0.74;100.00;95491.47;5051307;28;20462;-74
2021/11/27 08:22:07;;;;;;;5.97;5.43;;;;;;;0.92;100.00;95496.50;5047554;28;20249;-74
2021/11/27 08:24:35;;;;;;;6.90;5.60;;;;;;;0.77;100.00;95506.78;5006645;28;21116;-74
2021/11/27 08:27:03;;;;;;;7.10;5.17;;;;;;;1.10;100.00;95510.16;5045846;28;20834;-74
2021/11/27 08:29:31;;;;;;;5.00;4.60;;;;;;;1.07;100.00;95514.91;5052672;28;20329;-74
2021/11/27 08:31:59;;;;;;;5.33;4.83;;;;;;;1.13;100.00;95516.84;5051335;28;20226;-75
2021/11/27 08:34:27;;;;;;;5.33;4.83;;;;;;;1.10;100.00;95514.56;5056551;28;20646;-74
2021/11/27 08:36:56;;;;;;;5.13;4.73;;;;;;;1.15;100.00;95517.50;5046105;28;20224;-74
2021/11/27 08:39:26;;;;;;;6.13;5.53;;;;;;;1.21;100.00;95521.22;5037737;28;20211;-74
2021/11/27 08:41:54;;;;;;;6.30;5.47;;;;;;;1.33;100.00;95519.91;5029410;28;20207;-74
2021/11/27 08:44:22;;;;;;;4.50;4.20;;;;;;;1.37;100.00;95531.66;5036866;28;20199;-74
2021/11/27 08:46:50;;;;;;;6.33;5.53;;;;;;;1.37;100.00;95523.00;5050092;28;20234;-74
2021/11/27 08:49:18;;;;;;;5.17;4.60;;;;;;;1.40;100.00;95518.25;5053775;28;20207;-74
2021/11/27 08:51:46;;;;;;;5.33;4.83;;;;;;;1.54;100.00;95500.25;5053972;28;20287;-74
2021/11/27 08:54:14;;;;;;;5.13;4.70;;;;;;;1.51;100.00;95498.78;5041261;28;20223;-74
2021/11/27 08:56:44;;;;;;;5.97;4.70;;;;;;;1.75;100.00;95510.13;5032490;28;20242;-74
2021/11/27 08:59:12;;;;;;;8.80;5.17;;;;;;;1.99;100.00;95518.84;5041556;28;20596;-73
2021/11/27 09:01:42;;;;;;;5.77;5.27;;;;;;;1.98;100.00;95509.38;5050686;28;20606;-74
2021/11/27 09:04:10;;;;;;;5.63;5.13;;;;;;;1.85;100.00;95502.09;5052194;28;20219;-73
2021/11/27 09:06:38;;;;;;;4.83;4.43;;;;;;;2.01;100.00;95516.88;5056568;28;21076;-74
2021/11/27 09:09:06;;;;;;;4.80;4.40;;;;;;;2.00;100.00;95525.72;5050164;28;20218;-74
2021/11/27 09:11:35;;;;;;;5.83;4.40;;;;;;;2.00;100.00;95529.13;5017314;28;20276;-74
2021/11/27 09:14:06;;;;;;;5.57;5.17;;;;;;;2.10;100.00;95521.06;5052971;28;20208;-74
2021/11/27 09:16:35;;;;;;;5.37;4.87;;;;;;;2.37;100.00;95525.97;5038492;28;20226;-74
2021/11/27 09:19:06;;;;;;;4.93;4.40;;;;;;;2.54;100.00;95532.75;5050213;28;20208;-74
2021/11/27 09:21:34;;;;;;;6.47;5.33;;;;;;;2.50;100.00;95539.31;5056845;28;20293;-74
2021/11/27 09:24:03;;;;;;;5.17;4.50;;;;;;;2.48;100.00;95530.00;5052279;28;20212;-74
2021/11/27 09:26:34;;;;;;;4.80;4.40;;;;;;;2.43;100.00;95535.72;5013528;28;20887;-74
2021/11/27 09:29:03;;;;;;;4.83;4.43;;;;;;;2.64;100.00;95535.09;5046823;28;20207;-74
2021/11/27 09:31:32;;;;;;;4.57;4.17;;;;;;;2.73;100.00;95541.09;5043597;28;20207;-74
2021/11/27 09:33:59;;;;;;;5.00;4.60;;;;;;;2.69;100.00;95538.03;5052532;28;20207;-74
2021/11/27 09:36:28;;;;;;;6.03;4.63;;;;;;;2.80;100.00;95549.06;5053175;28;20876;-74
2021/11/27 09:38:56;;;;;;;5.53;4.23;;;;;;;2.81;100.00;95554.09;5056373;28;20214;-74
2021/11/27 09:41:27;;;;;;;3.90;3.50;;;;;;;2.87;100.00;95563.88;5044764;28;20210;-74
2021/11/27 09:43:57;;;;;;;4.63;4.23;;;;;;;2.88;100.00;95557.66;5028489;28;20207;-74
2021/11/27 09:46:28;;;;;;;4.70;4.30;;;;;;;3.05;100.00;95560.13;5034995;28;20207;-74
2021/11/27 09:48:57;;;;;;;4.43;4.03;;;;;;;3.09;100.00;95564.03;5047633;28;20250;-74
2021/11/27 09:51:28;;;;;;;5.13;4.73;;;;;;;3.30;100.00;95567.78;5054250;28;20196;-74
2021/11/27 09:53:57;;;;;;;5.17;4.37;;;;;;;3.34;100.00;95563.81;5051983;28;20211;-74
2021/11/27 09:56:26;;;;;;;4.67;4.23;;;;;;;3.35;100.00;95567.22;5040260;28;20222;-74
2021/11/27 09:58:55;;;;;;;4.43;4.13;;;;;;;3.43;100.00;95572.41;5029237;28;20687;-72
2021/11/27 10:01:28;;;;;;;4.20;3.80;;;;;;;3.39;100.00;95574.56;5037733;28;20218;-73
2021/11/27 10:04:02;;;;;;;3.87;3.57;;;;;;;3.60;100.00;95578.28;5052284;28;20204;-73
2021/11/27 10:06:32;;;;;;;4.37;4.07;;;;;;;3.36;100.00;95574.09;5053421;28;20202;-73
2021/11/27 10:09:02;;;;;;;4.00;3.60;;;;;;;3.27;100.00;95568.13;5056819;28;20776;-73
2021/11/27 10:11:30;;;;;;;4.43;4.13;;;;;;;3.43;100.00;95557.50;5043692;28;20198;-74
2021/11/27 10:13:58;;;;;;;4.00;3.70;;;;;;;3.46;100.00;95556.34;5030915;28;20211;-73
2021/11/27 10:16:31;;;;;;;3.90;3.70;;;;;;;3.53;100.00;95556.41;5052090;28;20211;-73
2021/11/27 10:19:07;;;;;;;4.37;3.97;;;;;;;3.54;100.00;95543.16;5035562;28;20211;-73
2021/11/27 10:21:36;;;;;;;4.00;3.70;;;;;;;3.46;100.00;95556.34;5049535;28;20194;-73
2021/11/27 10:24:18;;;;;;;3.13;2.93;;;;;;;3.49;100.00;95558.59;5049733;28;20211;-72
2021/11/27 10:26:46;;;;;;;3.90;3.03;;;;;;;3.71;100.00;95554.25;5045699;28;20633;-73
2021/11/27 10:29:20;;;;;;;3.90;3.63;;;;;;;3.86;100.00;95558.69;5029858;28;20221;-72
2021/11/27 10:31:52;;;;;;;4.83;3.80;;;;;;;4.00;100.00;95559.66;5052848;28;20202;-73
2021/11/27 10:34:22;;;;;;;3.90;3.60;;;;;;;4.07;100.00;95565.78;5038112;28;20203;-72
2021/11/27 10:37:08;;;;;;;4.70;4.30;;;;;;;4.29;100.00;95566.66;5050926;28;20337;-73
2021/11/27 10:39:36;;;;;;;4.30;4.00;;;;;;;4.28;100.00;95570.28;5055091;28;20202;-73
2021/11/27 10:42:10;;;;;;;4.33;3.90;;;;;;;4.27;100.00;95568.66;5037777;28;20207;-73
2021/11/27 10:44:40;;;;;;;3.70;3.40;;;;;;;4.35;100.00;95575.59;5022063;28;20661;-73
2021/11/27 10:47:12;;;;;;;4.00;3.63;;;;;;;4.67;100.00;95573.53;5047318;28;20223;-72
2021/11/27 10:49:41;;;;;;;3.50;3.20;;;;;;;4.95;100.00;95567.53;5040245;28;20219;-73
2021/11/27 10:52:11;;;;;;;3.33;3.10;;;;;;;4.62;100.00;95573.28;5048824;28;20214;-72
2021/11/27 10:54:44;;;;;;;4.00;3.70;;;;;;;4.47;100.00;95573.31;5054440;28;20207;-72
2021/11/27 10:57:35;;;;;;;3.97;3.57;;;;;;;4.44;100.00;95560.59;5044952;28;20248;-73
2021/11/27 11:00:07;;;;;;;3.20;2.97;;;;;;;4.38;100.00;95567.38;5018159;28;20222;-73
2021/11/27 11:02:38;;;;;;;3.43;3.13;;;;;;;4.53;100.00;95559.47;5046734;28;20852;-73
2021/11/27 11:05:10;;;;;;;4.03;3.50;;;;;;;4.55;100.00;95560.09;5034398;28;20211;-73
2021/11/27 11:07:39;;;;;;;3.10;2.80;;;;;;;4.74;100.00;95544.75;5052701;28;20216;-73
2021/11/27 11:10:12;;;;;;;3.17;2.97;;;;;;;4.54;100.00;95550.59;5050263;28;20202;-73
2021/11/27 11:12:42;;;;;;;3.17;2.97;;;;;;;4.65;100.00;95557.16;5047096;28;20218;-73
2021/11/27 11:15:14;;;;;;;3.47;3.27;;;;;;;4.63;100.00;95559.16;5038720;28;20746;-72
2021/11/27 11:17:44;;;;;;;3.53;3.23;;;;;;;4.68;100.00;95558.59;5052642;28;20236;-73
2021/11/27 11:20:17;;;;;;;3.70;3.50;;;;;;;4.54;100.00;95555.00;5037418;28;20219;-72
2021/11/27 11:23:13;;;;;;;3.83;3.53;;;;;;;4.47;100.00;95565.47;5057604;28;20214;-73
2021/11/27 11:26:09;;;;;;;3.37;3.00;;;;;;;4.45;100.00;95562.22;5004246;28;20207;-73
2021/11/27 11:28:39;;;;;;;3.27;3.07;;;;;;;4.48;100.00;95570.50;5016750;28;20218;-73
2021/11/27 11:31:10;;;;;;;3.13;2.93;;;;;;;4.42;100.00;95570.44;5020751;28;20219;-72
2021/11/27 11:33:41;;;;;;;3.10;2.90;;;;;;;4.27;100.00;95571.28;5048627;28;20252;-73
2021/11/27 11:36:14;;;;;;;2.93;2.73;;;;;;;4.31;100.00;95571.72;5037309;28;20212;-73
2021/11/27 11:38:44;;;;;;;2.83;2.63;;;;;;;4.30;100.00;95557.78;5052076;28;20217;-73